sensor_id;sensor_type;location;lat;lon;timestamp;P1;durP1;ratioP1;P2;durP2;ratioP2
21356;SDS011;10836;53.068;18.234;2023-08-21T00:01:58;16.20;;;13.98;;
21356;SDS011;10836;53.068;18.234;2023-08-21T00:04:25;18.00;;;13.60;;
21356;SDS011;10836;53.068;18.234;2023-08-21T00:06:52;17.95;;;13.95;;
21356;SDS011;10836;53.068;18.234;2023-08-21T00:09:19;15.82;;;14.13;;
21356;SDS011;10836;53.068;18.234;2023-08-21T00:11:46;17.13;;;14.23;;
21356;SDS011;10836;53.068;18.234;2023-08-21T00:14:13;16.60;;;13.98;;
21356;SDS011;10836;53.068;18.234;2023-08-21T00:16:40;17.88;;;13.77;;
21356;SDS011;10836;53.068;18.234;2023-08-21T00:19:07;16.42;;;14.18;;
21356;SDS011;10836;53.068;18.234;2023-08-21T00:21:34;17.77;;;14.13;;
21356;SDS011;10836;53.068;18.234;2023-08-21T00:24:04;16.17;;;13.10;;
21356;SDS011;10836;53.068;18.234;2023-08-21T00:26:31;15.27;;;12.93;;
21356;SDS011;10836;53.068;18.234;2023-08-21T00:28:58;16.10;;;13.98;;
21356;SDS011;10836;53.068;18.234;2023-08-21T00:31:25;18.30;;;14.30;;
21356;SDS011;10836;53.068;18.234;2023-08-21T00:33:52;19.92;;;14.05;;
21356;SDS011;10836;53.068;18.234;2023-08-21T00:36:19;16.52;;;13.65;;
21356;SDS011;10836;53.068;18.234;2023-08-21T00:38:46;16.52;;;13.18;;
21356;SDS011;10836;53.068;18.234;2023-08-21T00:41:14;17.98;;;14.57;;
21356;SDS011;10836;53.068;18.234;2023-08-21T00:43:41;20.13;;;14.35;;
21356;SDS011;10836;53.068;18.234;2023-08-21T00:46:10;16.52;;;13.73;;
21356;SDS011;10836;53.068;18.234;2023-08-21T00:48:37;16.05;;;13.73;;
21356;SDS011;10836;53.068;18.234;2023-08-21T00:51:04;18.90;;;14.60;;
21356;SDS011;10836;53.068;18.234;2023-08-21T00:53:33;15.68;;;13.30;;
21356;SDS011;10836;53.068;18.234;2023-08-21T00:56:00;17.40;;;13.82;;
21356;SDS011;10836;53.068;18.234;2023-08-21T00:58:28;18.08;;;14.45;;
21356;SDS011;10836;53.068;18.234;2023-08-21T01:00:55;19.40;;;14.10;;
21356;SDS011;10836;53.068;18.234;2023-08-21T01:03:22;15.98;;;12.93;;
21356;SDS011;10836;53.068;18.234;2023-08-21T01:05:49;18.42;;;14.60;;
21356;SDS011;10836;53.068;18.234;2023-08-21T01:11:03;18.55;;;14.88;;
21356;SDS011;10836;53.068;18.234;2023-08-21T01:16:21;17.45;;;14.32;;
21356;SDS011;10836;53.068;18.234;2023-08-21T01:18:51;17.02;;;13.45;;
21356;SDS011;10836;53.068;18.234;2023-08-21T01:21:20;20.73;;;14.30;;
21356;SDS011;10836;53.068;18.234;2023-08-21T01:23:47;18.35;;;14.93;;
21356;SDS011;10836;53.068;18.234;2023-08-21T01:26:14;20.05;;;15.05;;
21356;SDS011;10836;53.068;18.234;2023-08-21T01:28:41;19.92;;;14.55;;
21356;SDS011;10836;53.068;18.234;2023-08-21T01:31:14;17.48;;;14.57;;
21356;SDS011;10836;53.068;18.234;2023-08-21T01:33:47;19.05;;;15.38;;
21356;SDS011;10836;53.068;18.234;2023-08-21T01:36:17;17.30;;;13.98;;
21356;SDS011;10836;53.068;18.234;2023-08-21T01:38:45;16.77;;;14.10;;
21356;SDS011;10836;53.068;18.234;2023-08-21T01:41:13;15.85;;;14.15;;
21356;SDS011;10836;53.068;18.234;2023-08-21T01:43:40;17.13;;;13.75;;
21356;SDS011;10836;53.068;18.234;2023-08-21T01:46:07;17.88;;;14.05;;
21356;SDS011;10836;53.068;18.234;2023-08-21T01:48:35;17.98;;;14.88;;
21356;SDS011;10836;53.068;18.234;2023-08-21T01:51:02;18.35;;;14.23;;
21356;SDS011;10836;53.068;18.234;2023-08-21T01:53:30;19.98;;;15.52;;
21356;SDS011;10836;53.068;18.234;2023-08-21T01:55:56;17.48;;;14.45;;
21356;SDS011;10836;53.068;18.234;2023-08-21T01:58:23;22.05;;;14.73;;
21356;SDS011;10836;53.068;18.234;2023-08-21T02:00:50;22.55;;;15.25;;
21356;SDS011;10836;53.068;18.234;2023-08-21T02:03:17;19.08;;;14.93;;
21356;SDS011;10836;53.068;18.234;2023-08-21T02:05:44;20.95;;;15.27;;
21356;SDS011;10836;53.068;18.234;2023-08-21T02:08:12;23.05;;;16.38;;
21356;SDS011;10836;53.068;18.234;2023-08-21T02:10:49;18.13;;;15.35;;
21356;SDS011;10836;53.068;18.234;2023-08-21T02:13:18;18.52;;;15.88;;
21356;SDS011;10836;53.068;18.234;2023-08-21T02:15:45;21.45;;;16.17;;
21356;SDS011;10836;53.068;18.234;2023-08-21T02:18:12;23.08;;;15.52;;
21356;SDS011;10836;53.068;18.234;2023-08-21T02:20:39;19.92;;;16.48;;
21356;SDS011;10836;53.068;18.234;2023-08-21T02:23:09;20.00;;;16.02;;
21356;SDS011;10836;53.068;18.234;2023-08-21T02:25:36;20.30;;;16.17;;
21356;SDS011;10836;53.068;18.234;2023-08-21T02:28:03;23.35;;;17.80;;
21356;SDS011;10836;53.068;18.234;2023-08-21T02:30:31;25.25;;;17.45;;
21356;SDS011;10836;53.068;18.234;2023-08-21T02:32:58;20.88;;;16.05;;
21356;SDS011;10836;53.068;18.234;2023-08-21T02:35:25;19.23;;;14.48;;
21356;SDS011;10836;53.068;18.234;2023-08-21T02:37:52;20.35;;;15.93;;
21356;SDS011;10836;53.068;18.234;2023-08-21T02:40:19;21.00;;;15.50;;
21356;SDS011;10836;53.068;18.234;2023-08-21T02:42:46;22.55;;;15.75;;
21356;SDS011;10836;53.068;18.234;2023-08-21T02:45:13;17.88;;;14.85;;
21356;SDS011;10836;53.068;18.234;2023-08-21T02:47:40;19.80;;;15.27;;
21356;SDS011;10836;53.068;18.234;2023-08-21T02:50:08;20.95;;;14.27;;
21356;SDS011;10836;53.068;18.234;2023-08-21T02:52:37;20.98;;;15.45;;
21356;SDS011;10836;53.068;18.234;2023-08-21T02:55:05;19.08;;;14.63;;
21356;SDS011;10836;53.068;18.234;2023-08-21T02:57:32;20.02;;;15.15;;
21356;SDS011;10836;53.068;18.234;2023-08-21T02:59:59;19.25;;;15.05;;
21356;SDS011;10836;53.068;18.234;2023-08-21T03:02:27;17.45;;;13.77;;
21356;SDS011;10836;53.068;18.234;2023-08-21T03:04:55;18.42;;;13.50;;
21356;SDS011;10836;53.068;18.234;2023-08-21T03:07:22;19.80;;;14.60;;
21356;SDS011;10836;53.068;18.234;2023-08-21T03:09:49;19.33;;;13.82;;
21356;SDS011;10836;53.068;18.234;2023-08-21T03:12:17;20.55;;;15.70;;
21356;SDS011;10836;53.068;18.234;2023-08-21T03:14:45;20.48;;;15.07;;
21356;SDS011;10836;53.068;18.234;2023-08-21T03:17:12;20.92;;;15.27;;
21356;SDS011;10836;53.068;18.234;2023-08-21T03:19:40;19.02;;;15.20;;
21356;SDS011;10836;53.068;18.234;2023-08-21T03:22:07;20.90;;;16.05;;
21356;SDS011;10836;53.068;18.234;2023-08-21T03:24:34;21.10;;;14.70;;
21356;SDS011;10836;53.068;18.234;2023-08-21T03:27:01;18.27;;;14.27;;
21356;SDS011;10836;53.068;18.234;2023-08-21T03:29:29;26.10;;;17.27;;
21356;SDS011;10836;53.068;18.234;2023-08-21T03:31:58;24.88;;;16.48;;
21356;SDS011;10836;53.068;18.234;2023-08-21T03:34:25;24.00;;;16.70;;
21356;SDS011;10836;53.068;18.234;2023-08-21T03:36:57;21.25;;;15.32;;
21356;SDS011;10836;53.068;18.234;2023-08-21T03:39:26;18.60;;;15.07;;
21356;SDS011;10836;53.068;18.234;2023-08-21T03:41:53;22.33;;;15.75;;
21356;SDS011;10836;53.068;18.234;2023-08-21T03:44:23;21.45;;;14.88;;
21356;SDS011;10836;53.068;18.234;2023-08-21T03:46:50;20.20;;;14.75;;
21356;SDS011;10836;53.068;18.234;2023-08-21T03:49:17;24.42;;;14.30;;
21356;SDS011;10836;53.068;18.234;2023-08-21T03:51:48;16.23;;;12.77;;
21356;SDS011;10836;53.068;18.234;2023-08-21T03:54:15;22.45;;;14.43;;
21356;SDS011;10836;53.068;18.234;2023-08-21T03:56:42;24.25;;;14.70;;
21356;SDS011;10836;53.068;18.234;2023-08-21T03:59:08;25.33;;;14.75;;
21356;SDS011;10836;53.068;18.234;2023-08-21T04:01:36;22.85;;;14.07;;
21356;SDS011;10836;53.068;18.234;2023-08-21T04:04:03;21.50;;;13.23;;
21356;SDS011;10836;53.068;18.234;2023-08-21T04:06:30;15.98;;;11.68;;
21356;SDS011;10836;53.068;18.234;2023-08-21T04:08:57;16.63;;;11.45;;
21356;SDS011;10836;53.068;18.234;2023-08-21T04:11:24;17.40;;;11.23;;
21356;SDS011;10836;53.068;18.234;2023-08-21T04:13:50;19.08;;;11.45;;
21356;SDS011;10836;53.068;18.234;2023-08-21T04:16:18;16.52;;;11.48;;
21356;SDS011;10836;53.068;18.234;2023-08-21T04:18:45;19.27;;;11.48;;
21356;SDS011;10836;53.068;18.234;2023-08-21T04:21:12;18.67;;;11.05;;
21356;SDS011;10836;53.068;18.234;2023-08-21T04:23:39;17.50;;;11.48;;
21356;SDS011;10836;53.068;18.234;2023-08-21T04:26:06;22.58;;;12.43;;
21356;SDS011;10836;53.068;18.234;2023-08-21T04:28:35;23.35;;;11.23;;
21356;SDS011;10836;53.068;18.234;2023-08-21T04:31:06;16.27;;;9.68;;
21356;SDS011;10836;53.068;18.234;2023-08-21T04:33:34;14.98;;;9.82;;
21356;SDS011;10836;53.068;18.234;2023-08-21T04:36:02;16.60;;;10.40;;
21356;SDS011;10836;53.068;18.234;2023-08-21T04:38:29;13.73;;;8.48;;
21356;SDS011;10836;53.068;18.234;2023-08-21T04:41:05;19.17;;;8.43;;
21356;SDS011;10836;53.068;18.234;2023-08-21T04:43:33;16.63;;;7.95;;
21356;SDS011;10836;53.068;18.234;2023-08-21T04:46:01;17.50;;;7.70;;
21356;SDS011;10836;53.068;18.234;2023-08-21T04:48:29;14.98;;;8.57;;
21356;SDS011;10836;53.068;18.234;2023-08-21T04:50:56;19.42;;;8.45;;
21356;SDS011;10836;53.068;18.234;2023-08-21T04:53:23;14.65;;;7.82;;
21356;SDS011;10836;53.068;18.234;2023-08-21T04:55:51;11.93;;;8.10;;
21356;SDS011;10836;53.068;18.234;2023-08-21T04:58:19;16.20;;;8.15;;
21356;SDS011;10836;53.068;18.234;2023-08-21T05:00:46;13.55;;;7.40;;
21356;SDS011;10836;53.068;18.234;2023-08-21T05:03:13;12.20;;;7.45;;
21356;SDS011;10836;53.068;18.234;2023-08-21T05:05:51;16.33;;;8.20;;
21356;SDS011;10836;53.068;18.234;2023-08-21T05:08:20;12.88;;;7.82;;
21356;SDS011;10836;53.068;18.234;2023-08-21T05:10:53;15.93;;;7.60;;
21356;SDS011;10836;53.068;18.234;2023-08-21T05:13:26;16.48;;;7.78;;
21356;SDS011;10836;53.068;18.234;2023-08-21T05:15:54;18.85;;;8.05;;
21356;SDS011;10836;53.068;18.234;2023-08-21T05:18:27;15.68;;;7.45;;
21356;SDS011;10836;53.068;18.234;2023-08-21T05:20:56;11.18;;;7.47;;
21356;SDS011;10836;53.068;18.234;2023-08-21T05:23:23;10.93;;;7.32;;
21356;SDS011;10836;53.068;18.234;2023-08-21T05:25:54;13.98;;;7.03;;
21356;SDS011;10836;53.068;18.234;2023-08-21T05:28:20;12.02;;;6.72;;
21356;SDS011;10836;53.068;18.234;2023-08-21T05:30:48;9.65;;;6.43;;
21356;SDS011;10836;53.068;18.234;2023-08-21T05:33:19;12.43;;;6.63;;
21356;SDS011;10836;53.068;18.234;2023-08-21T05:35:49;15.15;;;6.70;;
21356;SDS011;10836;53.068;18.234;2023-08-21T05:38:16;12.48;;;6.78;;
21356;SDS011;10836;53.068;18.234;2023-08-21T05:40:44;12.70;;;6.57;;
21356;SDS011;10836;53.068;18.234;2023-08-21T05:43:11;12.50;;;5.82;;
21356;SDS011;10836;53.068;18.234;2023-08-21T05:45:41;10.20;;;5.70;;
21356;SDS011;10836;53.068;18.234;2023-08-21T05:48:10;11.30;;;5.88;;
21356;SDS011;10836;53.068;18.234;2023-08-21T05:50:37;11.32;;;5.13;;
21356;SDS011;10836;53.068;18.234;2023-08-21T05:53:04;9.30;;;5.20;;
21356;SDS011;10836;53.068;18.234;2023-08-21T05:55:32;12.05;;;5.60;;
21356;SDS011;10836;53.068;18.234;2023-08-21T05:58:00;11.60;;;5.28;;
21356;SDS011;10836;53.068;18.234;2023-08-21T06:00:27;12.30;;;5.20;;
21356;SDS011;10836;53.068;18.234;2023-08-21T06:02:54;10.85;;;5.88;;
21356;SDS011;10836;53.068;18.234;2023-08-21T06:05:47;8.25;;;4.60;;
21356;SDS011;10836;53.068;18.234;2023-08-21T06:08:14;11.23;;;5.18;;
21356;SDS011;10836;53.068;18.234;2023-08-21T06:10:41;12.25;;;4.88;;
21356;SDS011;10836;53.068;18.234;2023-08-21T06:13:08;8.07;;;5.10;;
21356;SDS011;10836;53.068;18.234;2023-08-21T06:15:36;9.88;;;4.80;;
21356;SDS011;10836;53.068;18.234;2023-08-21T06:18:03;9.00;;;4.82;;
21356;SDS011;10836;53.068;18.234;2023-08-21T06:20:31;14.20;;;5.20;;
21356;SDS011;10836;53.068;18.234;2023-08-21T06:22:58;9.68;;;4.35;;
21356;SDS011;10836;53.068;18.234;2023-08-21T06:25:25;9.38;;;4.47;;
21356;SDS011;10836;53.068;18.234;2023-08-21T06:27:51;9.18;;;4.47;;
21356;SDS011;10836;53.068;18.234;2023-08-21T06:30:26;11.05;;;4.53;;
21356;SDS011;10836;53.068;18.234;2023-08-21T06:32:54;11.50;;;4.28;;
21356;SDS011;10836;53.068;18.234;2023-08-21T06:35:23;9.43;;;4.75;;
21356;SDS011;10836;53.068;18.234;2023-08-21T06:37:51;5.60;;;3.80;;
21356;SDS011;10836;53.068;18.234;2023-08-21T06:40:19;9.95;;;3.30;;
21356;SDS011;10836;53.068;18.234;2023-08-21T06:42:46;5.88;;;3.58;;
21356;SDS011;10836;53.068;18.234;2023-08-21T06:45:13;7.70;;;3.60;;
21356;SDS011;10836;53.068;18.234;2023-08-21T06:47:40;7.03;;;3.25;;
21356;SDS011;10836;53.068;18.234;2023-08-21T06:50:08;6.57;;;3.40;;
21356;SDS011;10836;53.068;18.234;2023-08-21T06:52:35;13.25;;;3.40;;
21356;SDS011;10836;53.068;18.234;2023-08-21T06:55:03;10.52;;;3.28;;
21356;SDS011;10836;53.068;18.234;2023-08-21T06:57:30;8.07;;;3.30;;
21356;SDS011;10836;53.068;18.234;2023-08-21T06:59:58;8.57;;;3.08;;
21356;SDS011;10836;53.068;18.234;2023-08-21T07:02:24;8.00;;;3.03;;
21356;SDS011;10836;53.068;18.234;2023-08-21T07:04:52;5.28;;;2.40;;
21356;SDS011;10836;53.068;18.234;2023-08-21T07:07:19;6.07;;;3.00;;
21356;SDS011;10836;53.068;18.234;2023-08-21T07:09:46;5.32;;;2.10;;
21356;SDS011;10836;53.068;18.234;2023-08-21T07:12:13;3.53;;;1.88;;
21356;SDS011;10836;53.068;18.234;2023-08-21T07:14:40;4.35;;;2.33;;
21356;SDS011;10836;53.068;18.234;2023-08-21T07:17:07;6.60;;;1.98;;
21356;SDS011;10836;53.068;18.234;2023-08-21T07:19:34;5.43;;;2.03;;
21356;SDS011;10836;53.068;18.234;2023-08-21T07:22:00;4.30;;;1.95;;
21356;SDS011;10836;53.068;18.234;2023-08-21T07:24:28;7.65;;;2.20;;
21356;SDS011;10836;53.068;18.234;2023-08-21T07:26:54;3.58;;;1.90;;
21356;SDS011;10836;53.068;18.234;2023-08-21T07:29:22;7.68;;;2.33;;
21356;SDS011;10836;53.068;18.234;2023-08-21T07:31:48;4.38;;;1.90;;
21356;SDS011;10836;53.068;18.234;2023-08-21T07:34:16;5.50;;;1.98;;
21356;SDS011;10836;53.068;18.234;2023-08-21T07:36:42;6.10;;;2.08;;
21356;SDS011;10836;53.068;18.234;2023-08-21T07:39:10;6.63;;;2.38;;
21356;SDS011;10836;53.068;18.234;2023-08-21T07:41:36;6.03;;;2.00;;
21356;SDS011;10836;53.068;18.234;2023-08-21T07:44:03;4.07;;;1.85;;
21356;SDS011;10836;53.068;18.234;2023-08-21T07:46:30;5.03;;;2.05;;
21356;SDS011;10836;53.068;18.234;2023-08-21T07:48:57;4.47;;;1.70;;
21356;SDS011;10836;53.068;18.234;2023-08-21T07:51:24;7.07;;;1.92;;
21356;SDS011;10836;53.068;18.234;2023-08-21T07:53:51;3.80;;;2.10;;
21356;SDS011;10836;53.068;18.234;2023-08-21T07:56:18;6.68;;;2.10;;
21356;SDS011;10836;53.068;18.234;2023-08-21T07:58:45;3.97;;;1.63;;
21356;SDS011;10836;53.068;18.234;2023-08-21T08:01:12;5.28;;;2.33;;
21356;SDS011;10836;53.068;18.234;2023-08-21T08:03:39;3.40;;;1.88;;
21356;SDS011;10836;53.068;18.234;2023-08-21T08:06:06;5.60;;;2.03;;
21356;SDS011;10836;53.068;18.234;2023-08-21T08:08:33;4.60;;;2.10;;
21356;SDS011;10836;53.068;18.234;2023-08-21T08:11:02;4.55;;;1.80;;
21356;SDS011;10836;53.068;18.234;2023-08-21T08:13:31;4.45;;;2.20;;
21356;SDS011;10836;53.068;18.234;2023-08-21T08:15:58;5.15;;;1.80;;
21356;SDS011;10836;53.068;18.234;2023-08-21T08:18:25;4.70;;;2.15;;
21356;SDS011;10836;53.068;18.234;2023-08-21T08:20:52;14.45;;;2.63;;
21356;SDS011;10836;53.068;18.234;2023-08-21T08:23:20;4.82;;;1.80;;
21356;SDS011;10836;53.068;18.234;2023-08-21T08:25:47;3.65;;;2.03;;
21356;SDS011;10836;53.068;18.234;2023-08-21T08:28:14;5.00;;;1.90;;
21356;SDS011;10836;53.068;18.234;2023-08-21T08:30:41;3.67;;;1.70;;
21356;SDS011;10836;53.068;18.234;2023-08-21T08:33:09;3.65;;;1.65;;
21356;SDS011;10836;53.068;18.234;2023-08-21T08:35:35;6.22;;;2.00;;
21356;SDS011;10836;53.068;18.234;2023-08-21T08:38:03;5.43;;;1.67;;
21356;SDS011;10836;53.068;18.234;2023-08-21T08:40:29;4.20;;;1.92;;
21356;SDS011;10836;53.068;18.234;2023-08-21T08:42:57;3.85;;;1.63;;
21356;SDS011;10836;53.068;18.234;2023-08-21T08:45:28;4.13;;;1.98;;
21356;SDS011;10836;53.068;18.234;2023-08-21T08:47:59;6.18;;;1.70;;
21356;SDS011;10836;53.068;18.234;2023-08-21T08:50:31;3.28;;;1.60;;
21356;SDS011;10836;53.068;18.234;2023-08-21T08:52:59;5.40;;;1.92;;
21356;SDS011;10836;53.068;18.234;2023-08-21T08:55:42;5.97;;;2.28;;
21356;SDS011;10836;53.068;18.234;2023-08-21T08:58:09;4.70;;;2.15;;
21356;SDS011;10836;53.068;18.234;2023-08-21T09:00:36;4.68;;;2.10;;
21356;SDS011;10836;53.068;18.234;2023-08-21T09:03:03;6.45;;;1.90;;
21356;SDS011;10836;53.068;18.234;2023-08-21T09:05:32;6.55;;;1.90;;
21356;SDS011;10836;53.068;18.234;2023-08-21T09:08:09;5.90;;;1.85;;
21356;SDS011;10836;53.068;18.234;2023-08-21T09:10:38;3.47;;;1.88;;
21356;SDS011;10836;53.068;18.234;2023-08-21T09:13:24;4.57;;;1.90;;
21356;SDS011;10836;53.068;18.234;2023-08-21T09:15:55;4.78;;;1.90;;
21356;SDS011;10836;53.068;18.234;2023-08-21T09:18:22;6.45;;;2.13;;
21356;SDS011;10836;53.068;18.234;2023-08-21T09:20:49;4.45;;;1.90;;
21356;SDS011;10836;53.068;18.234;2023-08-21T09:23:17;4.20;;;1.75;;
21356;SDS011;10836;53.068;18.234;2023-08-21T09:25:46;5.63;;;1.92;;
21356;SDS011;10836;53.068;18.234;2023-08-21T09:28:19;5.32;;;2.05;;
21356;SDS011;10836;53.068;18.234;2023-08-21T09:30:54;4.68;;;1.98;;
21356;SDS011;10836;53.068;18.234;2023-08-21T09:33:22;4.60;;;2.00;;
21356;SDS011;10836;53.068;18.234;2023-08-21T09:35:53;3.65;;;1.40;;
21356;SDS011;10836;53.068;18.234;2023-08-21T09:38:21;6.28;;;2.00;;
21356;SDS011;10836;53.068;18.234;2023-08-21T09:40:50;5.50;;;1.92;;
21356;SDS011;10836;53.068;18.234;2023-08-21T09:43:18;7.18;;;1.95;;
21356;SDS011;10836;53.068;18.234;2023-08-21T09:45:47;5.13;;;1.70;;
21356;SDS011;10836;53.068;18.234;2023-08-21T09:48:23;4.75;;;1.60;;
21356;SDS011;10836;53.068;18.234;2023-08-21T09:50:53;6.78;;;1.80;;
21356;SDS011;10836;53.068;18.234;2023-08-21T09:53:21;3.85;;;1.52;;
21356;SDS011;10836;53.068;18.234;2023-08-21T09:55:52;5.25;;;2.03;;
21356;SDS011;10836;53.068;18.234;2023-08-21T09:58:20;7.45;;;1.70;;
21356;SDS011;10836;53.068;18.234;2023-08-21T10:00:48;4.93;;;1.73;;
21356;SDS011;10836;53.068;18.234;2023-08-21T10:03:20;2.78;;;1.33;;
21356;SDS011;10836;53.068;18.234;2023-08-21T10:05:48;7.10;;;1.60;;
21356;SDS011;10836;53.068;18.234;2023-08-21T10:08:18;4.93;;;1.80;;
21356;SDS011;10836;53.068;18.234;2023-08-21T10:10:50;5.75;;;1.80;;
21356;SDS011;10836;53.068;18.234;2023-08-21T10:13:17;6.60;;;1.58;;
21356;SDS011;10836;53.068;18.234;2023-08-21T10:15:45;4.78;;;1.42;;
21356;SDS011;10836;53.068;18.234;2023-08-21T10:20:46;5.07;;;1.40;;
21356;SDS011;10836;53.068;18.234;2023-08-21T10:23:30;6.95;;;1.83;;
21356;SDS011;10836;53.068;18.234;2023-08-21T10:25:58;5.30;;;1.52;;
21356;SDS011;10836;53.068;18.234;2023-08-21T10:28:41;4.00;;;1.23;;
21356;SDS011;10836;53.068;18.234;2023-08-21T10:34:06;3.63;;;1.33;;
21356;SDS011;10836;53.068;18.234;2023-08-21T10:39:12;6.32;;;1.20;;
21356;SDS011;10836;53.068;18.234;2023-08-21T10:41:40;7.13;;;1.90;;
21356;SDS011;10836;53.068;18.234;2023-08-21T10:44:07;5.80;;;1.52;;
21356;SDS011;10836;53.068;18.234;2023-08-21T10:46:50;3.55;;;1.60;;
21356;SDS011;10836;53.068;18.234;2023-08-21T10:49:18;4.05;;;1.55;;
21356;SDS011;10836;53.068;18.234;2023-08-21T10:51:45;6.63;;;1.63;;
21356;SDS011;10836;53.068;18.234;2023-08-21T10:54:13;5.03;;;1.63;;
21356;SDS011;10836;53.068;18.234;2023-08-21T10:56:40;5.63;;;1.17;;
21356;SDS011;10836;53.068;18.234;2023-08-21T10:59:07;4.90;;;1.40;;
21356;SDS011;10836;53.068;18.234;2023-08-21T11:01:43;4.75;;;1.27;;
21356;SDS011;10836;53.068;18.234;2023-08-21T11:04:12;4.38;;;1.38;;
21356;SDS011;10836;53.068;18.234;2023-08-21T11:06:39;7.20;;;1.67;;
21356;SDS011;10836;53.068;18.234;2023-08-21T11:09:12;5.22;;;1.60;;
21356;SDS011;10836;53.068;18.234;2023-08-21T11:11:39;9.07;;;1.60;;
21356;SDS011;10836;53.068;18.234;2023-08-21T11:14:06;4.85;;;1.45;;
21356;SDS011;10836;53.068;18.234;2023-08-21T11:16:33;6.05;;;1.77;;
21356;SDS011;10836;53.068;18.234;2023-08-21T11:19:03;5.60;;;1.38;;
21356;SDS011;10836;53.068;18.234;2023-08-21T11:21:32;4.63;;;1.38;;
21356;SDS011;10836;53.068;18.234;2023-08-21T11:23:59;9.75;;;1.73;;
21356;SDS011;10836;53.068;18.234;2023-08-21T11:26:26;5.78;;;1.70;;
21356;SDS011;10836;53.068;18.234;2023-08-21T11:28:53;5.47;;;1.70;;
21356;SDS011;10836;53.068;18.234;2023-08-21T11:31:22;7.68;;;1.50;;
21356;SDS011;10836;53.068;18.234;2023-08-21T11:33:50;4.25;;;1.70;;
21356;SDS011;10836;53.068;18.234;2023-08-21T11:36:18;3.65;;;1.38;;
21356;SDS011;10836;53.068;18.234;2023-08-21T11:38:57;3.95;;;1.27;;
21356;SDS011;10836;53.068;18.234;2023-08-21T11:41:30;7.18;;;1.88;;
21356;SDS011;10836;53.068;18.234;2023-08-21T11:44:03;4.38;;;1.38;;
21356;SDS011;10836;53.068;18.234;2023-08-21T11:46:30;8.07;;;1.70;;
21356;SDS011;10836;53.068;18.234;2023-08-21T11:48:57;5.00;;;1.63;;
21356;SDS011;10836;53.068;18.234;2023-08-21T11:51:26;4.65;;;1.90;;
21356;SDS011;10836;53.068;18.234;2023-08-21T11:53:54;3.88;;;1.58;;
21356;SDS011;10836;53.068;18.234;2023-08-21T11:56:21;6.85;;;2.00;;
21356;SDS011;10836;53.068;18.234;2023-08-21T11:58:50;11.50;;;1.77;;
21356;SDS011;10836;53.068;18.234;2023-08-21T12:01:18;6.47;;;1.90;;
21356;SDS011;10836;53.068;18.234;2023-08-21T12:03:46;6.40;;;1.85;;
21356;SDS011;10836;53.068;18.234;2023-08-21T12:06:13;5.65;;;1.95;;
21356;SDS011;10836;53.068;18.234;2023-08-21T12:08:40;5.53;;;1.70;;
21356;SDS011;10836;53.068;18.234;2023-08-21T12:11:07;4.00;;;1.52;;
21356;SDS011;10836;53.068;18.234;2023-08-21T12:13:35;6.47;;;1.85;;
21356;SDS011;10836;53.068;18.234;2023-08-21T12:16:03;4.28;;;1.95;;
21356;SDS011;10836;53.068;18.234;2023-08-21T12:18:30;8.25;;;2.10;;
21356;SDS011;10836;53.068;18.234;2023-08-21T12:20:57;7.55;;;1.60;;
21356;SDS011;10836;53.068;18.234;2023-08-21T12:23:24;5.95;;;1.67;;
21356;SDS011;10836;53.068;18.234;2023-08-21T12:25:51;7.70;;;2.05;;
21356;SDS011;10836;53.068;18.234;2023-08-21T12:28:19;4.90;;;1.70;;
21356;SDS011;10836;53.068;18.234;2023-08-21T12:30:54;8.90;;;2.20;;
21356;SDS011;10836;53.068;18.234;2023-08-21T12:33:21;6.05;;;2.17;;
21356;SDS011;10836;53.068;18.234;2023-08-21T12:35:50;6.63;;;2.17;;
21356;SDS011;10836;53.068;18.234;2023-08-21T12:38:17;8.25;;;2.20;;
21356;SDS011;10836;53.068;18.234;2023-08-21T12:40:44;6.63;;;1.60;;
21356;SDS011;10836;53.068;18.234;2023-08-21T12:43:11;5.93;;;1.80;;
21356;SDS011;10836;53.068;18.234;2023-08-21T12:45:38;11.02;;;2.17;;
21356;SDS011;10836;53.068;18.234;2023-08-21T12:48:05;7.65;;;2.08;;
21356;SDS011;10836;53.068;18.234;2023-08-21T12:50:33;7.85;;;2.22;;
21356;SDS011;10836;53.068;18.234;2023-08-21T12:53:00;9.45;;;2.53;;
21356;SDS011;10836;53.068;18.234;2023-08-21T12:55:28;5.60;;;2.60;;
21356;SDS011;10836;53.068;18.234;2023-08-21T12:57:56;8.95;;;4.07;;
21356;SDS011;10836;53.068;18.234;2023-08-21T13:00:23;12.30;;;2.92;;
21356;SDS011;10836;53.068;18.234;2023-08-21T13:02:50;3.90;;;1.75;;
21356;SDS011;10836;53.068;18.234;2023-08-21T13:05:18;8.10;;;2.45;;
21356;SDS011;10836;53.068;18.234;2023-08-21T13:07:45;6.35;;;1.98;;
21356;SDS011;10836;53.068;18.234;2023-08-21T13:10:12;8.32;;;2.03;;
21356;SDS011;10836;53.068;18.234;2023-08-21T13:12:40;8.63;;;2.70;;
21356;SDS011;10836;53.068;18.234;2023-08-21T13:15:08;8.55;;;2.90;;
21356;SDS011;10836;53.068;18.234;2023-08-21T13:17:35;13.00;;;2.70;;
21356;SDS011;10836;53.068;18.234;2023-08-21T13:20:02;6.85;;;2.13;;
21356;SDS011;10836;53.068;18.234;2023-08-21T13:22:49;24.75;;;3.72;;
21356;SDS011;10836;53.068;18.234;2023-08-21T13:25:18;7.43;;;2.28;;
21356;SDS011;10836;53.068;18.234;2023-08-21T13:27:47;5.60;;;2.20;;
21356;SDS011;10836;53.068;18.234;2023-08-21T13:30:13;8.70;;;2.55;;
21356;SDS011;10836;53.068;18.234;2023-08-21T13:32:41;15.07;;;2.25;;
21356;SDS011;10836;53.068;18.234;2023-08-21T13:35:09;11.35;;;2.25;;
21356;SDS011;10836;53.068;18.234;2023-08-21T13:37:37;10.18;;;2.35;;
21356;SDS011;10836;53.068;18.234;2023-08-21T13:40:05;7.82;;;1.92;;
21356;SDS011;10836;53.068;18.234;2023-08-21T13:42:41;7.78;;;2.17;;
21356;SDS011;10836;53.068;18.234;2023-08-21T13:45:09;8.35;;;2.05;;
21356;SDS011;10836;53.068;18.234;2023-08-21T13:47:40;6.50;;;2.03;;
21356;SDS011;10836;53.068;18.234;2023-08-21T13:50:14;4.97;;;2.00;;
21356;SDS011;10836;53.068;18.234;2023-08-21T13:52:43;5.00;;;2.00;;
21356;SDS011;10836;53.068;18.234;2023-08-21T13:55:10;6.22;;;2.20;;
21356;SDS011;10836;53.068;18.234;2023-08-21T13:57:37;7.38;;;2.20;;
21356;SDS011;10836;53.068;18.234;2023-08-21T14:00:05;6.85;;;2.38;;
21356;SDS011;10836;53.068;18.234;2023-08-21T14:02:34;5.57;;;2.05;;
21356;SDS011;10836;53.068;18.234;2023-08-21T14:05:02;5.22;;;2.05;;
21356;SDS011;10836;53.068;18.234;2023-08-21T14:07:33;14.20;;;2.80;;
21356;SDS011;10836;53.068;18.234;2023-08-21T14:10:00;10.90;;;2.88;;
21356;SDS011;10836;53.068;18.234;2023-08-21T14:12:29;7.88;;;2.65;;
21356;SDS011;10836;53.068;18.234;2023-08-21T14:14:57;9.10;;;2.40;;
21356;SDS011;10836;53.068;18.234;2023-08-21T14:17:25;12.88;;;2.28;;
21356;SDS011;10836;53.068;18.234;2023-08-21T14:19:52;8.63;;;2.20;;
21356;SDS011;10836;53.068;18.234;2023-08-21T14:22:20;13.45;;;2.63;;
21356;SDS011;10836;53.068;18.234;2023-08-21T14:24:47;11.63;;;2.28;;
21356;SDS011;10836;53.068;18.234;2023-08-21T14:27:14;7.15;;;2.45;;
21356;SDS011;10836;53.068;18.234;2023-08-21T14:29:44;9.93;;;2.28;;
21356;SDS011;10836;53.068;18.234;2023-08-21T14:32:11;14.15;;;2.92;;
21356;SDS011;10836;53.068;18.234;2023-08-21T14:34:38;18.27;;;2.50;;
21356;SDS011;10836;53.068;18.234;2023-08-21T14:37:06;8.70;;;3.00;;
21356;SDS011;10836;53.068;18.234;2023-08-21T14:39:33;8.10;;;2.38;;
21356;SDS011;10836;53.068;18.234;2023-08-21T14:42:00;8.15;;;2.30;;
21356;SDS011;10836;53.068;18.234;2023-08-21T14:44:27;6.95;;;2.75;;